Sim-Planet VA

Sim-Planet Nouvel Horizon. By: Anthony Pay
Since 2020.




 METAR ET TAF INFORMATION
METAR FOR LFML
ADDS - METARS form results

(1942 UTC 28 January 2022)
Data provider http://aviationweather.gov/metar/data/
 
METAR text: LFML 281930Z AUTO 31006KT 280V340 CAVOK 04/M01 Q1029 NOSIG
Conditions at: LFML (MARSEILLE/MARIGN, FR) observed 1930 UTC 28 January 2022
Temperature: 4.0°C (39°F)
Dewpoint: -1.0°C (30°F) [RH = 70%]
Pressure (altimeter): 30.38 inches Hg (1029.0 mb)
Winds: from the NW (310 degrees) at 7 MPH (6 knots; 3.1 m/s)
Visibility: 6 or more miles (10+ km)
Ceiling: ceiling and visibility are OK
Clouds: unknown
Weather: no significant weather observed at this time

METAR text: LFML 281900Z AUTO 30004KT 270V360 CAVOK 06/M01 Q1029 NOSIG
Conditions at: LFML (MARSEILLE/MARIGN, FR) observed 1900 UTC 28 January 2022
Temperature: 6.0°C (43°F)
Dewpoint: -1.0°C (30°F) [RH = 61%]
Pressure (altimeter): 30.38 inches Hg (1029.0 mb)
Winds: from the WNW (300 degrees) at 5 MPH (4 knots; 2.1 m/s)
Visibility: 6 or more miles (10+ km)
Ceiling: ceiling and visibility are OK
Clouds: unknown
Weather: no significant weather observed at this time

Forecast for: AMD
Text: TAF AMD LFML 281800Z 2818/2921 32015KT CAVOK TX11/2915Z TN00/2904Z
Forecast period: 1800 UTC 28 January 2022 to 2100 UTC 29 January 2022
Forecast type: FROM: standard forecast or significant change
Winds: from the NW (320 degrees) at 17 MPH (15 knots; 7.7 m/s)
Visibility: 6 or more miles (10+ km)
Ceiling: unknown
Clouds: missing
Weather: no significant weather forecast for this period
Text: TEMPO 2818/2905 34005KT
Forecast period: 1800 UTC 28 January 2022 to 0500 UTC 29 January 2022
Forecast type: TEMPORARY: The following changes expected for less than half the time period
Winds: from the NNW (340 degrees) at 6 MPH (5 knots; 2.6 m/s)
Visibility: missing
Ceiling: unknown
Clouds: missing
Weather: no significant weather forecast for this period

 AÉROPORT DE AÉROPORT

 INFORMATIONS DE PISTE
Piste 13L Longueur de la piste 11483 ft Largeur de la piste 148 ft
Élévation de la piste 8 ft Seuil de la piste déplacés 1116 ft Runway heading 134
Piste 31R Longueur de la piste 11483 ft Largeur de la piste 148 ft
Élévation de la piste 53 ft Seuil de la piste déplacés 2165 ft Runway heading 314
Piste 13R Longueur de la piste 7776 ft Largeur de la piste 148 ft
Élévation de la piste 8 ft Seuil de la piste déplacés 0 ft Runway heading 134
Piste 31L Longueur de la piste 7776 ft Largeur de la piste 148 ft
Élévation de la piste 61 ft Seuil de la piste déplacés 345 ft Runway heading 314

 AÉROPORT FRÉQUENCES
Type APP Nom APP/RADAR Féquence 120.2 MHZ
Type ATIS Nom ATIS Féquence 125.35 MHZ
Type GND Nom GND Féquence 121.9 MHZ
Type INFO Nom INFO Féquence 118.85 MHZ
Type PFLT Nom PERFLIGHT Féquence 121.725 MHZ
Type TWR Nom TWR Féquence 118.375 MHZ

 SIDA DE NAVIGATION
Type VOR-DME Nom Marseille/Provence Féquence 108800 KHZ

Nos Partenaires